sensor_id;sensor_type;location;lat;lon;timestamp;temperature;humidity
1377;DHT22;682;52.502;13.488;2022-11-20T00:13:13;0.90;1.00
1377;DHT22;682;52.502;13.488;2022-11-20T00:16:06;0.90;1.00
1377;DHT22;682;52.502;13.488;2022-11-20T00:22:13;1.00;1.00
1377;DHT22;682;52.502;13.488;2022-11-20T00:24:54;0.90;1.00
1377;DHT22;682;52.502;13.488;2022-11-20T00:28:01;0.90;1.00
1377;DHT22;682;52.502;13.488;2022-11-20T00:30:47;1.00;1.00
1377;DHT22;682;52.502;13.488;2022-11-20T00:33:50;0.90;1.00
1377;DHT22;682;52.502;13.488;2022-11-20T00:36:47;0.90;1.00
1377;DHT22;682;52.502;13.488;2022-11-20T00:39:45;0.90;1.00
1377;DHT22;682;52.502;13.488;2022-11-20T00:44:06;0.90;1.00
1377;DHT22;682;52.502;13.488;2022-11-20T00:46:35;0.90;1.00
1377;DHT22;682;52.502;13.488;2022-11-20T00:53:07;0.80;1.00
1377;DHT22;682;52.502;13.488;2022-11-20T00:56:19;0.80;1.00
1377;DHT22;682;52.502;13.488;2022-11-20T01:03:08;0.80;1.00
1377;DHT22;682;52.502;13.488;2022-11-20T01:05:43;0.80;1.00
1377;DHT22;682;52.502;13.488;2022-11-20T01:12:23;0.80;1.00
1377;DHT22;682;52.502;13.488;2022-11-20T01:18:40;0.90;1.00
1377;DHT22;682;52.502;13.488;2022-11-20T01:22:10;0.80;1.00
1377;DHT22;682;52.502;13.488;2022-11-20T01:25:11;0.80;1.00
1377;DHT22;682;52.502;13.488;2022-11-20T01:28:01;0.90;1.00
1377;DHT22;682;52.502;13.488;2022-11-20T01:30:46;1.00;1.00
1377;DHT22;682;52.502;13.488;2022-11-20T01:33:26;1.00;1.00
1377;DHT22;682;52.502;13.488;2022-11-20T01:36:05;1.00;1.00
1377;DHT22;682;52.502;13.488;2022-11-20T01:38:41;1.00;1.00
1377;DHT22;682;52.502;13.488;2022-11-20T01:41:29;1.00;1.00
1377;DHT22;682;52.502;13.488;2022-11-20T01:44:21;1.00;1.00
1377;DHT22;682;52.502;13.488;2022-11-20T01:47:09;1.10;1.00
1377;DHT22;682;52.502;13.488;2022-11-20T01:50:04;1.00;1.00
1377;DHT22;682;52.502;13.488;2022-11-20T01:52:52;1.10;1.00
1377;DHT22;682;52.502;13.488;2022-11-20T01:55:27;1.10;1.00
1377;DHT22;682;52.502;13.488;2022-11-20T01:58:07;1.10;1.00
1377;DHT22;682;52.502;13.488;2022-11-20T02:00:44;1.00;1.00
1377;DHT22;682;52.502;13.488;2022-11-20T02:03:20;0.90;1.00
1377;DHT22;682;52.502;13.488;2022-11-20T02:05:51;0.90;1.00
1377;DHT22;682;52.502;13.488;2022-11-20T02:08:27;0.90;1.00
1377;DHT22;682;52.502;13.488;2022-11-20T02:11:05;0.90;1.00
1377;DHT22;682;52.502;13.488;2022-11-20T02:13:39;0.90;1.00
1377;DHT22;682;52.502;13.488;2022-11-20T02:16:23;0.90;1.00
1377;DHT22;682;52.502;13.488;2022-11-20T02:18:59;0.90;1.00
1377;DHT22;682;52.502;13.488;2022-11-20T02:21:45;0.80;1.00
1377;DHT22;682;52.502;13.488;2022-11-20T02:24:23;0.80;1.00
1377;DHT22;682;52.502;13.488;2022-11-20T02:27:04;0.90;1.00
1377;DHT22;682;52.502;13.488;2022-11-20T02:29:45;0.90;1.00
1377;DHT22;682;52.502;13.488;2022-11-20T02:32:26;0.70;1.00
1377;DHT22;682;52.502;13.488;2022-11-20T02:35:07;0.60;1.00
1377;DHT22;682;52.502;13.488;2022-11-20T02:37:39;0.60;1.00
1377;DHT22;682;52.502;13.488;2022-11-20T02:40:09;0.60;1.00
1377;DHT22;682;52.502;13.488;2022-11-20T02:42:41;0.60;1.00
1377;DHT22;682;52.502;13.488;2022-11-20T02:45:08;0.70;1.00
1377;DHT22;682;52.502;13.488;2022-11-20T02:47:38;0.70;1.00
1377;DHT22;682;52.502;13.488;2022-11-20T02:50:06;0.70;1.00
1377;DHT22;682;52.502;13.488;2022-11-20T02:52:38;0.70;1.00
1377;DHT22;682;52.502;13.488;2022-11-20T02:55:07;0.70;1.00
1377;DHT22;682;52.502;13.488;2022-11-20T02:57:39;0.70;1.00
1377;DHT22;682;52.502;13.488;2022-11-20T03:00:07;0.70;1.00
1377;DHT22;682;52.502;13.488;2022-11-20T03:02:37;0.70;1.00
1377;DHT22;682;52.502;13.488;2022-11-20T03:05:05;0.70;1.00
1377;DHT22;682;52.502;13.488;2022-11-20T03:07:32;0.70;1.00
1377;DHT22;682;52.502;13.488;2022-11-20T03:10:04;0.80;1.00
1377;DHT22;682;52.502;13.488;2022-11-20T03:12:32;0.80;1.00
1377;DHT22;682;52.502;13.488;2022-11-20T03:15:11;0.80;1.00
1377;DHT22;682;52.502;13.488;2022-11-20T03:17:43;0.80;1.00
1377;DHT22;682;52.502;13.488;2022-11-20T03:20:11;0.70;1.00
1377;DHT22;682;52.502;13.488;2022-11-20T03:22:40;0.70;1.00
1377;DHT22;682;52.502;13.488;2022-11-20T03:25:08;0.70;1.00
1377;DHT22;682;52.502;13.488;2022-11-20T03:27:39;0.60;1.00
1377;DHT22;682;52.502;13.488;2022-11-20T03:30:08;0.60;1.00
1377;DHT22;682;52.502;13.488;2022-11-20T03:32:38;0.60;1.00
1377;DHT22;682;52.502;13.488;2022-11-20T03:35:06;0.60;1.00
1377;DHT22;682;52.502;13.488;2022-11-20T03:37:38;0.60;1.00
1377;DHT22;682;52.502;13.488;2022-11-20T03:40:09;0.60;1.00
1377;DHT22;682;52.502;13.488;2022-11-20T03:42:41;0.60;1.00
1377;DHT22;682;52.502;13.488;2022-11-20T03:45:19;0.60;1.00
1377;DHT22;682;52.502;13.488;2022-11-20T03:47:46;0.60;1.00
1377;DHT22;682;52.502;13.488;2022-11-20T03:50:18;0.60;1.00
1377;DHT22;682;52.502;13.488;2022-11-20T03:52:45;0.60;1.00
1377;DHT22;682;52.502;13.488;2022-11-20T03:55:14;0.70;1.00
1377;DHT22;682;52.502;13.488;2022-11-20T03:57:46;0.70;1.00
1377;DHT22;682;52.502;13.488;2022-11-20T04:00:18;0.70;1.00
1377;DHT22;682;52.502;13.488;2022-11-20T04:02:45;0.60;1.00
1377;DHT22;682;52.502;13.488;2022-11-20T04:05:12;0.70;1.00
1377;DHT22;682;52.502;13.488;2022-11-20T04:07:44;0.70;1.00
1377;DHT22;682;52.502;13.488;2022-11-20T04:10:11;0.70;1.00
1377;DHT22;682;52.502;13.488;2022-11-20T04:12:38;0.70;1.00
1377;DHT22;682;52.502;13.488;2022-11-20T04:15:07;0.70;1.00
1377;DHT22;682;52.502;13.488;2022-11-20T04:17:38;0.70;1.00
1377;DHT22;682;52.502;13.488;2022-11-20T04:20:06;0.60;1.00
1377;DHT22;682;52.502;13.488;2022-11-20T04:22:38;0.60;1.00
1377;DHT22;682;52.502;13.488;2022-11-20T04:25:06;0.60;1.00
1377;DHT22;682;52.502;13.488;2022-11-20T04:27:34;0.50;1.00
1377;DHT22;682;52.502;13.488;2022-11-20T04:30:04;0.50;1.00
1377;DHT22;682;52.502;13.488;2022-11-20T04:32:38;0.50;1.00
1377;DHT22;682;52.502;13.488;2022-11-20T04:35:05;0.50;1.00
1377;DHT22;682;52.502;13.488;2022-11-20T04:37:43;0.40;1.00
1377;DHT22;682;52.502;13.488;2022-11-20T04:40:11;0.50;1.00
1377;DHT22;682;52.502;13.488;2022-11-20T04:42:38;0.50;1.00
1377;DHT22;682;52.502;13.488;2022-11-20T04:45:06;0.50;1.00
1377;DHT22;682;52.502;13.488;2022-11-20T04:47:38;0.50;1.00
1377;DHT22;682;52.502;13.488;2022-11-20T04:50:05;0.60;1.00
1377;DHT22;682;52.502;13.488;2022-11-20T04:52:44;0.50;1.00
1377;DHT22;682;52.502;13.488;2022-11-20T04:55:12;0.50;1.00
1377;DHT22;682;52.502;13.488;2022-11-20T04:57:44;0.50;1.00
1377;DHT22;682;52.502;13.488;2022-11-20T05:00:13;0.40;1.00
1377;DHT22;682;52.502;13.488;2022-11-20T05:02:46;0.30;1.00
1377;DHT22;682;52.502;13.488;2022-11-20T05:05:18;0.40;1.00
1377;DHT22;682;52.502;13.488;2022-11-20T05:07:46;0.40;1.00
1377;DHT22;682;52.502;13.488;2022-11-20T05:10:20;0.40;1.00
1377;DHT22;682;52.502;13.488;2022-11-20T05:12:47;0.40;1.00
1377;DHT22;682;52.502;13.488;2022-11-20T05:15:18;0.40;1.00
1377;DHT22;682;52.502;13.488;2022-11-20T05:17:48;0.50;1.00
1377;DHT22;682;52.502;13.488;2022-11-20T05:20:19;0.50;1.00
1377;DHT22;682;52.502;13.488;2022-11-20T05:22:46;0.60;1.00
1377;DHT22;682;52.502;13.488;2022-11-20T05:25:18;0.60;1.00
1377;DHT22;682;52.502;13.488;2022-11-20T05:27:45;0.70;1.00
1377;DHT22;682;52.502;13.488;2022-11-20T05:30:18;0.70;1.00
1377;DHT22;682;52.502;13.488;2022-11-20T05:32:45;0.70;1.00
1377;DHT22;682;52.502;13.488;2022-11-20T05:35:53;0.70;1.00
1377;DHT22;682;52.502;13.488;2022-11-20T05:38:29;0.70;1.00
1377;DHT22;682;52.502;13.488;2022-11-20T05:41:09;0.70;1.00
1377;DHT22;682;52.502;13.488;2022-11-20T05:43:40;0.70;1.00
1377;DHT22;682;52.502;13.488;2022-11-20T05:46:11;0.80;1.00
1377;DHT22;682;52.502;13.488;2022-11-20T05:48:41;0.70;1.00
1377;DHT22;682;52.502;13.488;2022-11-20T05:51:19;0.80;1.00
1377;DHT22;682;52.502;13.488;2022-11-20T05:53:49;0.80;1.00
1377;DHT22;682;52.502;13.488;2022-11-20T05:56:19;0.80;1.00
1377;DHT22;682;52.502;13.488;2022-11-20T05:58:50;0.90;1.00
1377;DHT22;682;52.502;13.488;2022-11-20T06:01:22;0.90;1.00
1377;DHT22;682;52.502;13.488;2022-11-20T06:03:49;0.90;1.00
1377;DHT22;682;52.502;13.488;2022-11-20T06:06:20;1.00;1.00
1377;DHT22;682;52.502;13.488;2022-11-20T06:08:48;0.90;1.00
1377;DHT22;682;52.502;13.488;2022-11-20T06:11:24;0.90;1.00
1377;DHT22;682;52.502;13.488;2022-11-20T06:13:51;0.90;1.00
1377;DHT22;682;52.502;13.488;2022-11-20T06:16:19;0.80;1.00
1377;DHT22;682;52.502;13.488;2022-11-20T06:18:47;0.90;1.00
1377;DHT22;682;52.502;13.488;2022-11-20T06:21:20;0.90;1.00
1377;DHT22;682;52.502;13.488;2022-11-20T06:23:48;0.90;1.00
1377;DHT22;682;52.502;13.488;2022-11-20T06:26:20;0.90;1.00
1377;DHT22;682;52.502;13.488;2022-11-20T06:28:47;0.90;1.00
1377;DHT22;682;52.502;13.488;2022-11-20T06:31:20;0.80;1.00
1377;DHT22;682;52.502;13.488;2022-11-20T06:33:47;0.80;1.00
1377;DHT22;682;52.502;13.488;2022-11-20T06:36:22;0.80;1.00
1377;DHT22;682;52.502;13.488;2022-11-20T06:38:49;0.70;1.00
1377;DHT22;682;52.502;13.488;2022-11-20T06:41:21;0.70;1.00
1377;DHT22;682;52.502;13.488;2022-11-20T06:43:48;0.70;1.00
1377;DHT22;682;52.502;13.488;2022-11-20T06:46:19;0.70;1.00
1377;DHT22;682;52.502;13.488;2022-11-20T06:48:46;0.70;1.00
1377;DHT22;682;52.502;13.488;2022-11-20T06:51:16;0.70;1.00
1377;DHT22;682;52.502;13.488;2022-11-20T06:53:45;0.70;1.00
1377;DHT22;682;52.502;13.488;2022-11-20T06:56:12;0.70;1.00
1377;DHT22;682;52.502;13.488;2022-11-20T06:58:44;0.70;1.00
1377;DHT22;682;52.502;13.488;2022-11-20T07:01:14;0.80;1.00
1377;DHT22;682;52.502;13.488;2022-11-20T07:03:48;0.80;1.00
1377;DHT22;682;52.502;13.488;2022-11-20T07:06:19;0.80;1.00
1377;DHT22;682;52.502;13.488;2022-11-20T07:08:50;0.80;1.00
1377;DHT22;682;52.502;13.488;2022-11-20T07:11:21;1.00;1.00
1377;DHT22;682;52.502;13.488;2022-11-20T07:13:48;1.00;1.00
1377;DHT22;682;52.502;13.488;2022-11-20T07:16:23;1.00;1.00
1377;DHT22;682;52.502;13.488;2022-11-20T07:18:50;1.00;1.00
1377;DHT22;682;52.502;13.488;2022-11-20T07:21:22;1.00;1.00
1377;DHT22;682;52.502;13.488;2022-11-20T07:23:50;1.00;1.00
1377;DHT22;682;52.502;13.488;2022-11-20T07:26:19;0.90;1.00
1377;DHT22;682;52.502;13.488;2022-11-20T07:28:47;1.00;1.00
1377;DHT22;682;52.502;13.488;2022-11-20T07:31:15;0.90;1.00
1377;DHT22;682;52.502;13.488;2022-11-20T07:33:53;0.90;1.00
1377;DHT22;682;52.502;13.488;2022-11-20T07:36:22;0.90;1.00
1377;DHT22;682;52.502;13.488;2022-11-20T07:38:51;0.90;1.00
1377;DHT22;682;52.502;13.488;2022-11-20T07:41:21;0.90;1.00
1377;DHT22;682;52.502;13.488;2022-11-20T07:43:51;1.00;1.00
1377;DHT22;682;52.502;13.488;2022-11-20T07:46:19;1.00;1.00
1377;DHT22;682;52.502;13.488;2022-11-20T07:48:46;0.90;1.00
1377;DHT22;682;52.502;13.488;2022-11-20T07:51:13;0.90;1.00
1377;DHT22;682;52.502;13.488;2022-11-20T07:53:44;0.90;1.00
1377;DHT22;682;52.502;13.488;2022-11-20T07:56:12;0.90;1.00
1377;DHT22;682;52.502;13.488;2022-11-20T07:58:44;0.80;1.00
1377;DHT22;682;52.502;13.488;2022-11-20T08:01:11;0.90;1.00
1377;DHT22;682;52.502;13.488;2022-11-20T08:03:39;0.90;1.00
1377;DHT22;682;52.502;13.488;2022-11-20T08:06:07;0.80;1.00
1377;DHT22;682;52.502;13.488;2022-11-20T08:08:39;0.80;1.00
1377;DHT22;682;52.502;13.488;2022-11-20T08:11:06;0.70;1.00
1377;DHT22;682;52.502;13.488;2022-11-20T08:13:52;0.80;1.00
1377;DHT22;682;52.502;13.488;2022-11-20T08:16:39;0.80;1.00
1377;DHT22;682;52.502;13.488;2022-11-20T08:19:06;0.80;1.00
1377;DHT22;682;52.502;13.488;2022-11-20T08:21:37;0.90;1.00
1377;DHT22;682;52.502;13.488;2022-11-20T08:24:06;1.00;1.00
1377;DHT22;682;52.502;13.488;2022-11-20T08:26:39;1.10;1.00
1377;DHT22;682;52.502;13.488;2022-11-20T08:29:10;1.10;1.00
1377;DHT22;682;52.502;13.488;2022-11-20T08:31:39;1.10;1.00
1377;DHT22;682;52.502;13.488;2022-11-20T08:34:06;1.00;1.00
1377;DHT22;682;52.502;13.488;2022-11-20T08:36:39;1.20;1.00
1377;DHT22;682;52.502;13.488;2022-11-20T08:39:11;1.30;1.00
1377;DHT22;682;52.502;13.488;2022-11-20T08:41:39;1.20;1.00
1377;DHT22;682;52.502;13.488;2022-11-20T08:44:10;1.20;1.00
1377;DHT22;682;52.502;13.488;2022-11-20T08:46:38;1.20;1.00
1377;DHT22;682;52.502;13.488;2022-11-20T08:49:11;1.10;1.00
1377;DHT22;682;52.502;13.488;2022-11-20T08:51:41;1.10;1.00
1377;DHT22;682;52.502;13.488;2022-11-20T08:54:09;1.10;1.00
1377;DHT22;682;52.502;13.488;2022-11-20T08:56:36;1.20;1.00
1377;DHT22;682;52.502;13.488;2022-11-20T08:59:03;1.20;1.00
1377;DHT22;682;52.502;13.488;2022-11-20T09:01:39;1.30;1.00
1377;DHT22;682;52.502;13.488;2022-11-20T09:04:10;1.40;1.00
1377;DHT22;682;52.502;13.488;2022-11-20T09:06:37;1.40;1.00
1377;DHT22;682;52.502;13.488;2022-11-20T09:09:09;1.40;1.00
1377;DHT22;682;52.502;13.488;2022-11-20T09:11:37;1.40;1.00
1377;DHT22;682;52.502;13.488;2022-11-20T09:14:09;1.40;1.00
1377;DHT22;682;52.502;13.488;2022-11-20T09:16:38;1.40;1.00
1377;DHT22;682;52.502;13.488;2022-11-20T09:19:09;1.40;1.00
1377;DHT22;682;52.502;13.488;2022-11-20T09:21:36;1.30;1.00
1377;DHT22;682;52.502;13.488;2022-11-20T09:24:09;1.40;1.00
1377;DHT22;682;52.502;13.488;2022-11-20T09:26:37;1.40;1.00
1377;DHT22;682;52.502;13.488;2022-11-20T09:29:12;1.40;1.00
1377;DHT22;682;52.502;13.488;2022-11-20T09:31:42;1.40;1.00
1377;DHT22;682;52.502;13.488;2022-11-20T09:34:11;1.50;1.00
1377;DHT22;682;52.502;13.488;2022-11-20T09:36:39;1.40;1.00
1377;DHT22;682;52.502;13.488;2022-11-20T09:39:09;1.50;1.00
1377;DHT22;682;52.502;13.488;2022-11-20T09:45:08;1.50;1.00
1377;DHT22;682;52.502;13.488;2022-11-20T09:47:47;1.50;1.00
1377;DHT22;682;52.502;13.488;2022-11-20T09:50:31;1.50;1.00
1377;DHT22;682;52.502;13.488;2022-11-20T09:53:15;1.40;1.00
1377;DHT22;682;52.502;13.488;2022-11-20T09:55:43;1.30;1.00
1377;DHT22;682;52.502;13.488;2022-11-20T09:58:17;1.40;1.00
1377;DHT22;682;52.502;13.488;2022-11-20T10:00:50;1.40;1.00
1377;DHT22;682;52.502;13.488;2022-11-20T10:03:33;1.50;1.00
1377;DHT22;682;52.502;13.488;2022-11-20T10:06:04;1.50;1.00
1377;DHT22;682;52.502;13.488;2022-11-20T10:08:39;1.50;1.00
1377;DHT22;682;52.502;13.488;2022-11-20T10:11:13;1.50;1.00
1377;DHT22;682;52.502;13.488;2022-11-20T10:13:52;1.50;1.00
1377;DHT22;682;52.502;13.488;2022-11-20T10:16:33;1.60;1.00
1377;DHT22;682;52.502;13.488;2022-11-20T10:19:13;1.60;1.00
1377;DHT22;682;52.502;13.488;2022-11-20T10:21:54;1.70;1.00
1377;DHT22;682;52.502;13.488;2022-11-20T10:24:44;1.50;1.00
1377;DHT22;682;52.502;13.488;2022-11-20T10:27:45;1.50;1.00
1377;DHT22;682;52.502;13.488;2022-11-20T10:30:19;1.60;1.00
1377;DHT22;682;52.502;13.488;2022-11-20T10:32:54;1.60;1.00
1377;DHT22;682;52.502;13.488;2022-11-20T10:35:29;1.70;1.00
1377;DHT22;682;52.502;13.488;2022-11-20T10:38:02;1.70;1.00
1377;DHT22;682;52.502;13.488;2022-11-20T10:40:40;1.60;1.00
1377;DHT22;682;52.502;13.488;2022-11-20T10:43:13;1.60;1.00
1377;DHT22;682;52.502;13.488;2022-11-20T10:45:51;1.60;1.00
1377;DHT22;682;52.502;13.488;2022-11-20T10:48:23;1.60;1.00
1377;DHT22;682;52.502;13.488;2022-11-20T10:51:15;1.60;1.00
1377;DHT22;682;52.502;13.488;2022-11-20T10:53:53;1.70;1.00
1377;DHT22;682;52.502;13.488;2022-11-20T10:56:31;1.80;1.00
1377;DHT22;682;52.502;13.488;2022-11-20T11:02:20;2.00;1.00
1377;DHT22;682;52.502;13.488;2022-11-20T11:04:51;2.20;1.00
1377;DHT22;682;52.502;13.488;2022-11-20T11:07:22;2.30;1.00
1377;DHT22;682;52.502;13.488;2022-11-20T11:09:56;2.40;1.00
1377;DHT22;682;52.502;13.488;2022-11-20T11:12:30;2.40;1.00
1377;DHT22;682;52.502;13.488;2022-11-20T11:14:57;2.50;1.00
1377;DHT22;682;52.502;13.488;2022-11-20T11:17:31;2.70;1.00
1377;DHT22;682;52.502;13.488;2022-11-20T11:20:16;3.40;1.00
1377;DHT22;682;52.502;13.488;2022-11-20T11:22:47;3.80;1.00
1377;DHT22;682;52.502;13.488;2022-11-20T11:25:30;3.70;1.00
1377;DHT22;682;52.502;13.488;2022-11-20T11:28:02;3.50;1.00
1377;DHT22;682;52.502;13.488;2022-11-20T11:30:41;3.60;1.00
1377;DHT22;682;52.502;13.488;2022-11-20T11:33:18;3.70;1.00
1377;DHT22;682;52.502;13.488;2022-11-20T11:35:51;3.60;1.00
1377;DHT22;682;52.502;13.488;2022-11-20T11:38:22;3.60;1.00
1377;DHT22;682;52.502;13.488;2022-11-20T11:40:57;3.50;1.00
1377;DHT22;682;52.502;13.488;2022-11-20T11:43:30;3.30;1.00
1377;DHT22;682;52.502;13.488;2022-11-20T11:46:31;3.20;1.00
1377;DHT22;682;52.502;13.488;2022-11-20T11:49:00;3.20;1.00
1377;DHT22;682;52.502;13.488;2022-11-20T11:51:33;3.10;1.00
1377;DHT22;682;52.502;13.488;2022-11-20T11:54:12;3.10;1.00
1377;DHT22;682;52.502;13.488;2022-11-20T11:56:41;3.00;1.00
1377;DHT22;682;52.502;13.488;2022-11-20T11:59:16;2.90;1.00
1377;DHT22;682;52.502;13.488;2022-11-20T12:01:52;2.80;1.00
1377;DHT22;682;52.502;13.488;2022-11-20T12:04:28;2.60;1.00
1377;DHT22;682;52.502;13.488;2022-11-20T12:07:10;2.60;1.00
1377;DHT22;682;52.502;13.488;2022-11-20T12:09:46;2.60;1.00
1377;DHT22;682;52.502;13.488;2022-11-20T12:12:19;2.60;1.00
1377;DHT22;682;52.502;13.488;2022-11-20T12:14:53;2.60;1.00
1377;DHT22;682;52.502;13.488;2022-11-20T12:17:24;2.60;1.00
1377;DHT22;682;52.502;13.488;2022-11-20T12:19:57;2.50;1.00
1377;DHT22;682;52.502;13.488;2022-11-20T12:22:32;2.50;1.00
1377;DHT22;682;52.502;13.488;2022-11-20T12:25:06;2.50;1.00
1377;DHT22;682;52.502;13.488;2022-11-20T12:27:55;2.40;1.00
1377;DHT22;682;52.502;13.488;2022-11-20T12:30:54;2.50;1.00
1377;DHT22;682;52.502;13.488;2022-11-20T12:36:42;2.70;1.00
1377;DHT22;682;52.502;13.488;2022-11-20T12:39:26;2.70;1.00
1377;DHT22;682;52.502;13.488;2022-11-20T12:42:25;2.70;1.00
1377;DHT22;682;52.502;13.488;2022-11-20T12:45:58;2.80;1.00
1377;DHT22;682;52.502;13.488;2022-11-20T12:55:03;2.90;1.00
1377;DHT22;682;52.502;13.488;2022-11-20T12:57:52;3.00;1.00
1377;DHT22;682;52.502;13.488;2022-11-20T13:00:22;3.00;1.00
1377;DHT22;682;52.502;13.488;2022-11-20T13:03:22;3.00;1.00
1377;DHT22;682;52.502;13.488;2022-11-20T13:06:01;3.00;1.00
1377;DHT22;682;52.502;13.488;2022-11-20T13:08:34;2.80;1.00
1377;DHT22;682;52.502;13.488;2022-11-20T13:11:21;2.80;1.00
1377;DHT22;682;52.502;13.488;2022-11-20T13:14:18;2.70;1.00
1377;DHT22;682;52.502;13.488;2022-11-20T13:16:50;2.60;1.00
1377;DHT22;682;52.502;13.488;2022-11-20T13:19:21;2.50;1.00
1377;DHT22;682;52.502;13.488;2022-11-20T13:21:50;2.40;1.00
1377;DHT22;682;52.502;13.488;2022-11-20T13:24:27;2.40;1.00
1377;DHT22;682;52.502;13.488;2022-11-20T13:27:04;2.40;1.00
1377;DHT22;682;52.502;13.488;2022-11-20T13:29:34;2.50;1.00
1377;DHT22;682;52.502;13.488;2022-11-20T13:32:04;2.70;1.00
1377;DHT22;682;52.502;13.488;2022-11-20T13:34:34;3.00;1.00
1377;DHT22;682;52.502;13.488;2022-11-20T13:37:27;3.00;1.00
1377;DHT22;682;52.502;13.488;2022-11-20T13:40:11;3.10;1.00
1377;DHT22;682;52.502;13.488;2022-11-20T13:42:43;3.00;1.00
1377;DHT22;682;52.502;13.488;2022-11-20T13:45:22;3.00;1.00
1377;DHT22;682;52.502;13.488;2022-11-20T13:47:50;3.00;1.00
1377;DHT22;682;52.502;13.488;2022-11-20T13:50:20;2.90;1.00
1377;DHT22;682;52.502;13.488;2022-11-20T13:52:55;2.90;1.00
1377;DHT22;682;52.502;13.488;2022-11-20T13:55:33;3.00;1.00
1377;DHT22;682;52.502;13.488;2022-11-20T13:58:21;3.00;1.00
1377;DHT22;682;52.502;13.488;2022-11-20T14:00:58;3.10;1.00
1377;DHT22;682;52.502;13.488;2022-11-20T14:03:29;3.10;1.00
1377;DHT22;682;52.502;13.488;2022-11-20T14:06:01;3.00;1.00
1377;DHT22;682;52.502;13.488;2022-11-20T14:08:37;2.90;1.00
1377;DHT22;682;52.502;13.488;2022-11-20T14:11:13;2.90;1.00
1377;DHT22;682;52.502;13.488;2022-11-20T14:13:53;2.80;1.00
1377;DHT22;682;52.502;13.488;2022-11-20T14:16:34;2.80;1.00
1377;DHT22;682;52.502;13.488;2022-11-20T14:19:29;2.60;1.00
1377;DHT22;682;52.502;13.488;2022-11-20T14:22:20;2.60;1.00
1377;DHT22;682;52.502;13.488;2022-11-20T14:25:01;2.50;1.00
1377;DHT22;682;52.502;13.488;2022-11-20T14:27:34;2.50;1.00
1377;DHT22;682;52.502;13.488;2022-11-20T14:30:13;2.50;1.00
1377;DHT22;682;52.502;13.488;2022-11-20T14:32:48;2.60;1.00
1377;DHT22;682;52.502;13.488;2022-11-20T14:35:25;2.60;1.00
1377;DHT22;682;52.502;13.488;2022-11-20T14:37:53;2.70;1.00
1377;DHT22;682;52.502;13.488;2022-11-20T14:40:29;2.70;1.00
1377;DHT22;682;52.502;13.488;2022-11-20T14:42:57;2.60;1.00
1377;DHT22;682;52.502;13.488;2022-11-20T14:45:31;2.60;1.00
1377;DHT22;682;52.502;13.488;2022-11-20T14:48:15;2.60;1.00
1377;DHT22;682;52.502;13.488;2022-11-20T14:50:44;2.50;1.00
1377;DHT22;682;52.502;13.488;2022-11-20T14:53:22;2.40;1.00
1377;DHT22;682;52.502;13.488;2022-11-20T14:56:02;2.30;1.00
1377;DHT22;682;52.502;13.488;2022-11-20T14:58:34;2.20;1.00
1377;DHT22;682;52.502;13.488;2022-11-20T15:01:02;2.10;1.00
1377;DHT22;682;52.502;13.488;2022-11-20T15:03:35;2.10;1.00
1377;DHT22;682;52.502;13.488;2022-11-20T15:06:05;2.00;1.00
1377;DHT22;682;52.502;13.488;2022-11-20T15:08:37;2.00;1.00
1377;DHT22;682;52.502;13.488;2022-11-20T15:11:16;2.00;1.00
1377;DHT22;682;52.502;13.488;2022-11-20T15:13:45;2.00;1.00
1377;DHT22;682;52.502;13.488;2022-11-20T15:16:24;2.10;1.00
1377;DHT22;682;52.502;13.488;2022-11-20T15:19:18;2.10;1.00
1377;DHT22;682;52.502;13.488;2022-11-20T15:21:54;2.10;1.00
1377;DHT22;682;52.502;13.488;2022-11-20T15:24:32;2.10;1.00
1377;DHT22;682;52.502;13.488;2022-11-20T15:26:59;2.20;1.00
1377;DHT22;682;52.502;13.488;2022-11-20T15:29:31;2.10;1.00
1377;DHT22;682;52.502;13.488;2022-11-20T15:31:58;2.10;1.00
1377;DHT22;682;52.502;13.488;2022-11-20T15:34:32;2.10;1.00
1377;DHT22;682;52.502;13.488;2022-11-20T15:36:59;2.00;1.00
1377;DHT22;682;52.502;13.488;2022-11-20T15:39:26;2.10;1.00
1377;DHT22;682;52.502;13.488;2022-11-20T15:41:53;2.10;1.00
1377;DHT22;682;52.502;13.488;2022-11-20T15:44:20;2.10;1.00
1377;DHT22;682;52.502;13.488;2022-11-20T15:46:47;2.10;1.00
1377;DHT22;682;52.502;13.488;2022-11-20T15:49:17;2.10;1.00
1377;DHT22;682;52.502;13.488;2022-11-20T15:51:49;2.10;1.00
1377;DHT22;682;52.502;13.488;2022-11-20T15:54:21;2.10;1.00
1377;DHT22;682;52.502;13.488;2022-11-20T15:56:49;2.20;1.00
1377;DHT22;682;52.502;13.488;2022-11-20T15:59:18;2.30;1.00
1377;DHT22;682;52.502;13.488;2022-11-20T16:01:49;2.30;1.00
1377;DHT22;682;52.502;13.488;2022-11-20T16:04:17;2.40;1.00
1377;DHT22;682;52.502;13.488;2022-11-20T16:19:49;1.90;1.00
1377;DHT22;682;52.502;13.488;2022-11-20T16:22:17;1.70;1.00
1377;DHT22;682;52.502;13.488;2022-11-20T16:24:47;1.70;1.00
1377;DHT22;682;52.502;13.488;2022-11-20T16:27:17;1.60;1.00
1377;DHT22;682;52.502;13.488;2022-11-20T16:29:49;1.50;1.00
1377;DHT22;682;52.502;13.488;2022-11-20T16:32:20;1.40;1.00
1377;DHT22;682;52.502;13.488;2022-11-20T16:34:50;1.40;1.00
1377;DHT22;682;52.502;13.488;2022-11-20T16:37:19;1.30;1.00
1377;DHT22;682;52.502;13.488;2022-11-20T16:39:49;1.30;1.00
1377;DHT22;682;52.502;13.488;2022-11-20T16:42:24;1.20;1.00
1377;DHT22;682;52.502;13.488;2022-11-20T16:44:54;1.20;1.00
1377;DHT22;682;52.502;13.488;2022-11-20T16:47:22;1.10;1.00
1377;DHT22;682;52.502;13.488;2022-11-20T16:50:07;1.10;1.00
1377;DHT22;682;52.502;13.488;2022-11-20T16:52:38;1.00;1.00
1377;DHT22;682;52.502;13.488;2022-11-20T17:06:03;1.00;1.00
1377;DHT22;682;52.502;13.488;2022-11-20T17:09:30;1.10;1.00
1377;DHT22;682;52.502;13.488;2022-11-20T17:12:44;1.10;1.00
1377;DHT22;682;52.502;13.488;2022-11-20T17:18:55;1.20;1.00
1377;DHT22;682;52.502;13.488;2022-11-20T17:32:26;1.20;1.00
1377;DHT22;682;52.502;13.488;2022-11-20T17:35:42;1.30;1.00
1377;DHT22;682;52.502;13.488;2022-11-20T17:40:53;1.30;1.00
1377;DHT22;682;52.502;13.488;2022-11-20T17:42:31;1.40;1.00
1377;DHT22;682;52.502;13.488;2022-11-20T17:56:22;1.60;1.00
1377;DHT22;682;52.502;13.488;2022-11-20T17:59:11;1.70;1.00
1377;DHT22;682;52.502;13.488;2022-11-20T18:01:50;1.70;1.00
1377;DHT22;682;52.502;13.488;2022-11-20T18:04:19;1.70;1.00
1377;DHT22;682;52.502;13.488;2022-11-20T18:06:46;1.80;1.00
1377;DHT22;682;52.502;13.488;2022-11-20T18:09:24;1.80;1.00
1377;DHT22;682;52.502;13.488;2022-11-20T18:11:59;1.80;1.00
1377;DHT22;682;52.502;13.488;2022-11-20T18:14:29;1.80;1.00
1377;DHT22;682;52.502;13.488;2022-11-20T18:17:01;1.90;1.00
1377;DHT22;682;52.502;13.488;2022-11-20T18:19:31;1.90;1.00
1377;DHT22;682;52.502;13.488;2022-11-20T18:22:03;1.90;1.00
1377;DHT22;682;52.502;13.488;2022-11-20T18:24:33;1.70;1.00
1377;DHT22;682;52.502;13.488;2022-11-20T18:27:04;1.70;1.00
1377;DHT22;682;52.502;13.488;2022-11-20T18:29:36;1.60;1.00
1377;DHT22;682;52.502;13.488;2022-11-20T18:32:03;1.60;1.00
1377;DHT22;682;52.502;13.488;2022-11-20T18:34:30;1.60;1.00
1377;DHT22;682;52.502;13.488;2022-11-20T18:36:58;1.60;1.00
1377;DHT22;682;52.502;13.488;2022-11-20T18:39:26;1.60;1.00
1377;DHT22;682;52.502;13.488;2022-11-20T18:41:57;1.60;1.00
1377;DHT22;682;52.502;13.488;2022-11-20T18:44:43;1.60;1.00
1377;DHT22;682;52.502;13.488;2022-11-20T18:47:18;1.60;1.00
1377;DHT22;682;52.502;13.488;2022-11-20T18:49:48;1.60;1.00
1377;DHT22;682;52.502;13.488;2022-11-20T18:52:18;1.60;1.00
1377;DHT22;682;52.502;13.488;2022-11-20T18:54:46;1.60;1.00
1377;DHT22;682;52.502;13.488;2022-11-20T18:57:21;1.60;1.00
1377;DHT22;682;52.502;13.488;2022-11-20T18:59:51;1.60;1.00
1377;DHT22;682;52.502;13.488;2022-11-20T19:02:19;1.60;1.00
1377;DHT22;682;52.502;13.488;2022-11-20T19:04:57;1.60;1.00